createdAt,value
2023-03-31T00:01:14.919Z,14.25
2023-03-31T00:03:45.144Z,14.16
2023-03-31T00:06:19.261Z,14.11
2023-03-31T00:08:52.768Z,14.03
2023-03-31T00:11:24.233Z,13.97
2023-03-31T00:13:52.602Z,14.02
2023-03-31T00:16:20.948Z,14.06
2023-03-31T00:18:51.567Z,14.11
2023-03-31T00:21:26.002Z,14.04
2023-03-31T00:23:58.380Z,13.97
2023-03-31T00:26:27.439Z,13.87
2023-03-31T00:28:56.328Z,13.79
2023-03-31T00:31:25.184Z,13.67
2023-03-31T00:33:53.756Z,13.59
2023-03-31T00:36:22.434Z,13.54
2023-03-31T00:38:52.435Z,13.51
2023-03-31T00:41:21.215Z,13.56
2023-03-31T00:44:19.796Z,13.58
2023-03-31T00:46:55.003Z,13.55
2023-03-31T00:49:37.116Z,13.52
2023-03-31T00:52:14.629Z,13.50
2023-03-31T00:54:46.876Z,13.50
2023-03-31T00:57:16.851Z,13.47
2023-03-31T00:59:50.402Z,13.51
2023-03-31T01:02:21.464Z,13.57
2023-03-31T01:05:02.996Z,13.60
2023-03-31T01:07:39.257Z,13.69
2023-03-31T01:10:08.126Z,13.68
2023-03-31T01:12:41.115Z,13.70
2023-03-31T01:15:11.218Z,13.76
2023-03-31T01:17:39.970Z,13.90
2023-03-31T01:20:17.039Z,13.97
2023-03-31T01:23:03.993Z,13.96
2023-03-31T01:25:48.834Z,13.93
2023-03-31T01:28:17.021Z,13.84
2023-03-31T01:31:03.781Z,13.75
2023-03-31T01:34:00.145Z,13.69
2023-03-31T01:36:49.694Z,13.58
2023-03-31T01:39:43.652Z,13.45
2023-03-31T01:42:35.773Z,13.31
2023-03-31T01:45:18.659Z,13.23
2023-03-31T01:47:59.890Z,13.17
2023-03-31T01:50:40.176Z,13.12
2023-03-31T01:53:37.308Z,13.07
2023-03-31T01:56:05.628Z,12.98
2023-03-31T01:58:42.099Z,12.92
2023-03-31T02:01:37.510Z,12.82
2023-03-31T02:04:11.357Z,12.73
2023-03-31T02:06:44.795Z,12.69
2023-03-31T02:09:18.375Z,12.64
2023-03-31T02:11:49.177Z,12.60
2023-03-31T02:14:22.777Z,12.52
2023-03-31T02:16:59.396Z,12.45
2023-03-31T02:19:32.954Z,12.39
2023-03-31T02:22:02.357Z,12.36
2023-03-31T02:24:32.493Z,12.30
2023-03-31T02:27:06.240Z,12.22
2023-03-31T02:29:35.113Z,12.16
2023-03-31T02:32:14.139Z,12.09
2023-03-31T02:34:42.671Z,12.05
2023-03-31T02:37:11.953Z,12.02
2023-03-31T02:39:42.779Z,11.95
2023-03-31T02:42:11.807Z,11.89
2023-03-31T02:44:41.177Z,11.86
2023-03-31T02:47:13.105Z,11.82
2023-03-31T02:49:47.533Z,11.79
2023-03-31T02:52:25.190Z,11.82
2023-03-31T02:55:10.491Z,11.79
2023-03-31T02:58:19.114Z,11.80
2023-03-31T03:00:59.585Z,11.82
2023-03-31T03:03:38.261Z,11.79
2023-03-31T03:06:39.450Z,11.76
2023-03-31T03:09:24.064Z,11.70
2023-03-31T03:12:09.376Z,11.68
2023-03-31T03:14:46.557Z,11.62
2023-03-31T03:17:33.164Z,11.59
2023-03-31T03:20:03.956Z,11.54
2023-03-31T03:22:32.165Z,11.52
2023-03-31T03:25:00.354Z,11.51
2023-03-31T03:27:29.267Z,11.50
2023-03-31T03:29:57.537Z,11.47
2023-03-31T03:32:25.772Z,11.42
2023-03-31T03:34:53.995Z,11.35
2023-03-31T03:37:22.258Z,11.31
2023-03-31T03:39:50.464Z,11.27
2023-03-31T03:42:18.739Z,11.25
2023-03-31T03:44:47.010Z,11.22
2023-03-31T03:47:15.514Z,11.19
2023-03-31T03:49:43.828Z,11.13
2023-03-31T03:52:12.233Z,11.11
2023-03-31T03:54:40.417Z,11.09
2023-03-31T03:57:08.790Z,11.05
2023-03-31T03:59:37.068Z,11.01
2023-03-31T04:02:05.557Z,10.99
2023-03-31T04:04:33.826Z,10.97
2023-03-31T04:07:02.251Z,10.96
2023-03-31T04:09:30.549Z,10.94
2023-03-31T04:11:58.811Z,10.91
2023-03-31T04:14:27.280Z,10.86
2023-03-31T04:16:57.160Z,10.80
2023-03-31T04:19:28.723Z,10.76
2023-03-31T04:21:59.635Z,10.71
2023-03-31T04:24:33.714Z,10.66
2023-03-31T04:27:03.640Z,10.65
2023-03-31T04:29:34.309Z,10.60
2023-03-31T04:32:03.007Z,10.56
2023-03-31T04:34:37.098Z,10.47
2023-03-31T04:37:05.447Z,10.42
2023-03-31T04:39:33.670Z,10.40
2023-03-31T04:42:02.639Z,10.39
2023-03-31T04:44:31.528Z,10.34
2023-03-31T04:47:03.626Z,10.31
2023-03-31T04:49:34.318Z,10.25
2023-03-31T04:52:02.750Z,10.20
2023-03-31T04:54:30.971Z,10.18
2023-03-31T04:56:59.352Z,10.13
2023-03-31T04:59:27.572Z,10.08
2023-03-31T05:01:55.833Z,10.00
2023-03-31T05:04:24.185Z,9.93
2023-03-31T05:06:52.514Z,9.91
2023-03-31T05:09:21.529Z,9.90
2023-03-31T05:11:50.207Z,9.87
2023-03-31T05:14:18.409Z,9.83
2023-03-31T05:16:46.848Z,9.81
2023-03-31T05:19:15.383Z,9.80
2023-03-31T05:21:43.682Z,9.78
2023-03-31T05:24:12.382Z,9.74
2023-03-31T05:26:42.156Z,9.66
2023-03-31T05:29:10.418Z,9.63
2023-03-31T05:31:38.733Z,9.61
2023-03-31T05:34:07.244Z,9.56
2023-03-31T05:36:36.014Z,9.55
2023-03-31T05:39:06.010Z,9.51
2023-03-31T05:41:35.097Z,9.48
2023-03-31T05:44:03.392Z,9.47
2023-03-31T05:46:32.336Z,9.43
2023-03-31T05:49:00.746Z,9.34
2023-03-31T05:51:29.104Z,9.28
2023-03-31T05:53:57.397Z,9.29
2023-03-31T05:56:25.755Z,9.30
2023-03-31T05:58:54.334Z,9.28
2023-03-31T06:01:24.095Z,9.26
2023-03-31T06:03:52.838Z,9.23
2023-03-31T06:06:21.302Z,9.18
2023-03-31T06:08:50.252Z,9.12
2023-03-31T06:11:20.695Z,9.05
2023-03-31T06:13:49.638Z,9.00
2023-03-31T06:16:19.283Z,8.92
2023-03-31T06:18:47.815Z,8.92
2023-03-31T06:21:18.304Z,8.92
2023-03-31T06:23:47.310Z,8.91
2023-03-31T06:26:20.620Z,8.89
2023-03-31T06:28:48.905Z,8.85
2023-03-31T06:31:22.534Z,8.82
2023-03-31T06:33:51.125Z,8.76
2023-03-31T06:36:21.907Z,8.68
2023-03-31T06:38:51.405Z,8.67
2023-03-31T06:41:21.843Z,8.63
2023-03-31T06:43:50.350Z,8.54
2023-03-31T06:46:18.929Z,8.51
2023-03-31T06:48:47.204Z,8.48
2023-03-31T06:51:15.522Z,8.46
2023-03-31T06:53:44.148Z,8.49
2023-03-31T06:56:12.505Z,8.45
2023-03-31T06:58:40.703Z,8.42
2023-03-31T07:01:09.293Z,8.40
2023-03-31T07:03:37.779Z,8.35
2023-03-31T07:06:06.362Z,8.31
2023-03-31T07:08:34.569Z,8.26
2023-03-31T07:11:03.525Z,8.21
2023-03-31T07:13:32.028Z,8.19
2023-03-31T07:16:00.501Z,8.20
2023-03-31T07:18:34.796Z,8.19
2023-03-31T07:21:07.073Z,8.19
2023-03-31T07:23:37.296Z,8.16
2023-03-31T07:26:05.723Z,8.12
2023-03-31T07:28:34.079Z,8.09
2023-03-31T07:31:02.311Z,8.07
2023-03-31T07:33:30.656Z,8.04
2023-03-31T07:36:11.038Z,8.03
2023-03-31T07:38:42.874Z,7.99
2023-03-31T07:41:15.752Z,7.96
2023-03-31T07:43:44.508Z,7.94
2023-03-31T07:46:28.045Z,7.91
2023-03-31T07:48:57.677Z,7.90
2023-03-31T07:51:28.054Z,7.85
2023-03-31T07:53:56.309Z,7.89
2023-03-31T07:56:26.304Z,7.87
2023-03-31T07:58:57.343Z,7.84
2023-03-31T08:01:27.118Z,7.84
2023-03-31T08:03:57.279Z,7.78
2023-03-31T08:06:28.589Z,7.73
2023-03-31T08:08:58.699Z,7.66
2023-03-31T08:11:28.330Z,7.59
2023-03-31T08:13:57.837Z,7.59
2023-03-31T08:16:27.708Z,7.59
2023-03-31T08:18:56.149Z,7.56
2023-03-31T08:21:25.007Z,7.53
2023-03-31T08:23:56.402Z,7.52
2023-03-31T08:26:28.048Z,7.51
2023-03-31T08:29:00.614Z,7.48
2023-03-31T08:31:31.018Z,7.47
2023-03-31T08:34:00.438Z,7.44
2023-03-31T08:36:30.091Z,7.39
2023-03-31T08:38:59.665Z,7.40
2023-03-31T08:41:56.621Z,7.38
2023-03-31T08:44:39.797Z,7.37
2023-03-31T08:47:15.598Z,7.32
2023-03-31T08:49:51.475Z,7.26
2023-03-31T08:52:36.185Z,7.23
2023-03-31T08:55:09.118Z,7.18
2023-03-31T08:57:45.514Z,7.17
2023-03-31T09:00:20.401Z,7.16
2023-03-31T09:03:05.676Z,7.14
2023-03-31T09:06:01.495Z,7.08
2023-03-31T09:08:37.343Z,7.06
2023-03-31T09:11:29.185Z,7.03
2023-03-31T09:14:17.833Z,7.01
2023-03-31T09:16:52.779Z,7.03
2023-03-31T09:19:53.913Z,7.02
2023-03-31T09:22:28.924Z,6.97
2023-03-31T09:25:11.960Z,6.97
2023-03-31T09:27:43.543Z,7.01
2023-03-31T09:30:23.668Z,7.06
2023-03-31T09:33:00.486Z,7.02
2023-03-31T09:35:30.010Z,6.99
2023-03-31T09:37:59.233Z,6.98
2023-03-31T09:40:29.825Z,6.95
2023-03-31T09:43:10.088Z,6.90
2023-03-31T09:45:38.344Z,6.84
2023-03-31T09:48:13.204Z,6.77
2023-03-31T09:50:50.254Z,6.75
2023-03-31T09:53:34.541Z,6.72
2023-03-31T09:56:04.883Z,6.72
2023-03-31T09:58:44.080Z,6.71
2023-03-31T10:01:15.385Z,6.69
2023-03-31T10:03:54.669Z,6.67
2023-03-31T10:06:24.972Z,6.67
2023-03-31T10:09:04.717Z,6.67
2023-03-31T10:11:33.626Z,6.65
2023-03-31T10:14:06.060Z,6.63
2023-03-31T10:16:44.092Z,6.62
2023-03-31T10:19:30.977Z,6.67
2023-03-31T10:22:02.005Z,6.65
2023-03-31T10:24:47.330Z,6.64
2023-03-31T10:27:25.540Z,6.62
2023-03-31T10:29:56.843Z,6.64
2023-03-31T10:32:32.681Z,6.64
2023-03-31T10:35:26.301Z,6.63
2023-03-31T10:37:58.973Z,6.61
2023-03-31T10:40:29.501Z,6.62
2023-03-31T10:43:23.090Z,6.65
2023-03-31T10:46:02.150Z,6.67
2023-03-31T10:48:36.233Z,6.66
2023-03-31T10:51:18.693Z,6.63
2023-03-31T10:54:01.485Z,6.58
2023-03-31T10:56:44.746Z,6.54
2023-03-31T10:59:43.268Z,6.52
2023-03-31T11:02:50.824Z,6.53
2023-03-31T11:05:33.822Z,6.53
2023-03-31T11:08:17.943Z,6.51
2023-03-31T11:10:53.499Z,6.48
2023-03-31T11:13:34.634Z,6.48
2023-03-31T11:16:25.270Z,6.46
2023-03-31T11:19:17.379Z,6.49
2023-03-31T11:22:10.677Z,6.44
2023-03-31T11:25:12.805Z,6.39
2023-03-31T11:28:00.717Z,6.36
2023-03-31T11:30:36.581Z,6.30
2023-03-31T11:33:18.928Z,6.26
2023-03-31T11:35:51.768Z,6.25
2023-03-31T11:38:46.735Z,6.26
2023-03-31T11:41:18.855Z,6.27
2023-03-31T11:43:53.510Z,6.28
2023-03-31T11:46:39.107Z,6.29
2023-03-31T11:49:10.389Z,6.25
2023-03-31T11:51:51.664Z,6.24
2023-03-31T11:54:41.616Z,6.25
2023-03-31T11:57:22.962Z,6.26
2023-03-31T12:00:08.257Z,6.27
2023-03-31T12:02:54.204Z,6.27
2023-03-31T12:05:25.474Z,6.23
2023-03-31T12:08:07.081Z,6.16
2023-03-31T12:10:52.319Z,6.09
2023-03-31T12:13:46.514Z,6.02
2023-03-31T12:16:48.800Z,5.99
2023-03-31T12:19:34.811Z,5.96
2023-03-31T12:22:16.367Z,5.92
2023-03-31T12:24:45.124Z,5.90
2023-03-31T12:27:18.322Z,5.92
2023-03-31T12:29:58.709Z,5.97
2023-03-31T12:32:42.644Z,5.95
2023-03-31T12:35:23.188Z,5.92
2023-03-31T12:38:28.471Z,5.96
2023-03-31T12:41:20.759Z,5.94
2023-03-31T12:44:08.842Z,5.90
2023-03-31T12:47:07.341Z,5.88
2023-03-31T12:50:03.893Z,5.88
2023-03-31T12:52:50.512Z,5.84
2023-03-31T12:55:37.182Z,5.79
2023-03-31T12:58:23.987Z,5.73
2023-03-31T13:01:12.307Z,5.77
2023-03-31T13:03:46.334Z,5.78
2023-03-31T13:06:34.649Z,5.76
2023-03-31T13:09:06.721Z,5.75
2023-03-31T13:11:35.113Z,5.74
2023-03-31T13:14:22.750Z,5.75
2023-03-31T13:16:55.664Z,5.80
2023-03-31T13:19:37.141Z,5.76
2023-03-31T13:22:07.721Z,5.72
2023-03-31T13:24:36.459Z,5.71
2023-03-31T13:27:35.262Z,5.70
2023-03-31T13:30:04.362Z,5.68
2023-03-31T13:32:32.575Z,5.65
2023-03-31T13:35:32.262Z,5.60
2023-03-31T13:38:09.521Z,5.57
2023-03-31T13:41:14.879Z,5.54
2023-03-31T13:43:45.917Z,5.51
2023-03-31T13:46:51.916Z,5.46
2023-03-31T13:49:42.497Z,5.49
2023-03-31T13:52:14.565Z,5.53
2023-03-31T13:55:08.441Z,5.54
2023-03-31T13:57:40.315Z,5.56
2023-03-31T14:00:52.055Z,5.58
2023-03-31T14:03:23.725Z,5.59
2023-03-31T14:06:16.787Z,5.61
2023-03-31T14:09:05.065Z,5.60
2023-03-31T14:11:33.691Z,5.62
2023-03-31T14:14:05.153Z,5.62
2023-03-31T14:16:55.472Z,5.60
2023-03-31T14:19:42.422Z,5.58
2023-03-31T14:22:32.653Z,5.58
2023-03-31T14:25:29.536Z,5.63
2023-03-31T14:27:59.244Z,5.71
2023-03-31T14:30:48.184Z,5.78
2023-03-31T14:34:03.835Z,5.87
2023-03-31T14:37:01.232Z,5.93
2023-03-31T14:39:46.931Z,5.98
2023-03-31T14:42:21.076Z,6.02
2023-03-31T14:44:50.461Z,6.10
2023-03-31T14:47:23.658Z,6.19
2023-03-31T14:50:09.779Z,6.29
2023-03-31T14:52:38.247Z,6.36
2023-03-31T14:55:07.633Z,6.41
2023-03-31T14:57:39.338Z,6.49
2023-03-31T15:00:13.373Z,6.56
2023-03-31T15:02:47.808Z,6.66
2023-03-31T15:05:42.854Z,6.78
2023-03-31T15:08:26.857Z,6.91
2023-03-31T15:11:11.752Z,7.01
2023-03-31T15:14:01.105Z,7.15
2023-03-31T15:16:46.247Z,7.30
2023-03-31T15:19:23.670Z,7.42
2023-03-31T15:22:03.149Z,7.55
2023-03-31T15:24:32.092Z,7.67
2023-03-31T15:27:05.909Z,7.80
2023-03-31T15:30:04.024Z,7.94
2023-03-31T15:32:37.213Z,8.08
2023-03-31T15:35:21.024Z,8.18
2023-03-31T15:37:53.020Z,8.30
2023-03-31T15:40:52.967Z,8.36
2023-03-31T15:43:51.660Z,8.39
2023-03-31T15:46:46.966Z,8.50
2023-03-31T15:49:26.462Z,8.68
2023-03-31T15:51:57.838Z,8.81
2023-03-31T15:54:42.011Z,8.87
2023-03-31T15:57:16.013Z,8.95
2023-03-31T15:59:55.746Z,9.08
2023-03-31T16:02:44.159Z,9.19
2023-03-31T16:05:43.726Z,9.33
2023-03-31T16:08:45.171Z,9.48
2023-03-31T16:11:29.026Z,9.63
2023-03-31T16:14:00.890Z,9.71
2023-03-31T16:16:30.874Z,9.78
2023-03-31T16:19:10.937Z,9.88
2023-03-31T16:21:48.268Z,9.94
2023-03-31T16:24:17.358Z,10.04
2023-03-31T16:26:46.462Z,10.19
2023-03-31T16:29:24.166Z,10.32
2023-03-31T16:32:12.352Z,10.39
2023-03-31T16:35:12.675Z,10.47
2023-03-31T16:37:40.884Z,10.55
2023-03-31T16:40:10.756Z,10.66
2023-03-31T16:42:39.003Z,10.71
2023-03-31T16:45:14.351Z,10.74
2023-03-31T16:47:45.514Z,10.78
2023-03-31T16:50:15.913Z,10.86
2023-03-31T16:52:45.266Z,10.95
2023-03-31T16:55:13.634Z,11.04
2023-03-31T16:57:42.234Z,11.11
2023-03-31T17:00:11.601Z,11.18
2023-03-31T17:02:39.892Z,11.20
2023-03-31T17:05:13.033Z,11.30
2023-03-31T17:07:42.202Z,11.40
2023-03-31T17:10:11.120Z,11.46
2023-03-31T17:12:39.633Z,11.56
2023-03-31T17:15:08.554Z,11.59
2023-03-31T17:17:37.710Z,11.64
2023-03-31T17:20:07.566Z,11.75
2023-03-31T17:22:36.583Z,11.87
2023-03-31T17:25:05.424Z,11.98
2023-03-31T17:27:34.599Z,12.03
2023-03-31T17:32:31.925Z,12.07
2023-03-31T17:35:00.451Z,12.09
2023-03-31T17:37:28.797Z,12.21
2023-03-31T17:39:57.018Z,12.30
2023-03-31T17:42:25.695Z,12.36
2023-03-31T17:44:54.545Z,12.45
2023-03-31T17:47:22.800Z,12.56
2023-03-31T17:49:50.999Z,12.62
2023-03-31T17:52:19.232Z,12.66
2023-03-31T17:54:49.453Z,12.72
2023-03-31T17:57:19.436Z,12.76
2023-03-31T17:59:49.459Z,12.82
2023-03-31T18:02:17.723Z,12.88
2023-03-31T18:04:46.350Z,13.00
2023-03-31T18:07:15.049Z,13.12
2023-03-31T18:09:43.572Z,13.18
2023-03-31T18:12:11.868Z,13.22
2023-03-31T18:14:40.406Z,13.25
2023-03-31T18:17:08.625Z,13.30
2023-03-31T18:19:37.248Z,13.33
2023-03-31T18:22:05.513Z,13.38
2023-03-31T18:24:33.807Z,13.44
2023-03-31T18:27:02.370Z,13.46
2023-03-31T18:29:30.623Z,13.54
2023-03-31T18:31:58.907Z,13.66
2023-03-31T18:34:27.629Z,13.70
2023-03-31T18:36:56.031Z,13.73
2023-03-31T18:39:24.349Z,13.74
2023-03-31T18:41:54.351Z,13.77
2023-03-31T18:44:23.037Z,13.85
2023-03-31T18:46:51.433Z,13.96
2023-03-31T18:49:21.103Z,14.05
2023-03-31T18:51:49.362Z,14.14
2023-03-31T18:54:17.941Z,14.18
2023-03-31T18:56:46.657Z,14.24
2023-03-31T18:59:14.993Z,14.32
2023-03-31T19:01:43.268Z,14.39
2023-03-31T19:04:11.703Z,14.45
2023-03-31T19:06:40.017Z,14.52
2023-03-31T19:09:08.867Z,14.60
2023-03-31T19:11:38.999Z,14.63
2023-03-31T19:14:07.675Z,14.70
2023-03-31T19:16:42.515Z,14.89
2023-03-31T19:19:11.664Z,15.01
2023-03-31T19:21:40.199Z,14.98
2023-03-31T19:24:08.591Z,15.03
2023-03-31T19:26:37.268Z,15.18
2023-03-31T19:29:06.272Z,15.34
2023-03-31T19:31:39.021Z,15.48
2023-03-31T19:34:08.819Z,15.62
2023-03-31T19:36:37.101Z,15.70
2023-03-31T19:39:07.361Z,15.70
2023-03-31T19:41:37.161Z,15.72
2023-03-31T19:44:05.565Z,15.81
2023-03-31T19:46:34.000Z,15.87
2023-03-31T19:49:02.313Z,15.87
2023-03-31T19:51:30.663Z,15.95
2023-03-31T19:53:59.330Z,16.02
2023-03-31T19:56:28.402Z,16.05
2023-03-31T19:58:57.655Z,16.03
2023-03-31T20:01:29.059Z,16.13
2023-03-31T20:03:57.583Z,16.26
2023-03-31T20:06:28.175Z,16.37
2023-03-31T20:08:59.586Z,16.50
2023-03-31T20:11:29.360Z,16.56
2023-03-31T20:13:58.169Z,16.63
2023-03-31T20:16:29.021Z,16.75
2023-03-31T20:19:02.723Z,16.70
2023-03-31T20:21:32.701Z,16.70
2023-03-31T20:24:01.294Z,16.84
2023-03-31T20:26:31.125Z,16.96
2023-03-31T20:29:02.753Z,17.06
2023-03-31T20:31:39.307Z,17.05
2023-03-31T20:34:13.122Z,17.17
2023-03-31T20:36:43.102Z,17.33
2023-03-31T20:39:13.975Z,17.32
2023-03-31T20:41:42.259Z,17.33
2023-03-31T20:44:15.925Z,17.48
2023-03-31T20:46:45.524Z,17.59
2023-03-31T20:49:14.095Z,17.66
2023-03-31T20:51:43.445Z,17.45
2023-03-31T20:54:11.731Z,17.30
2023-03-31T20:56:41.677Z,17.13
2023-03-31T20:59:13.714Z,16.93
2023-03-31T21:01:43.299Z,16.86
2023-03-31T21:04:12.705Z,16.74
2023-03-31T21:06:44.167Z,16.63
2023-03-31T21:09:13.569Z,16.81
2023-03-31T21:11:42.375Z,17.27
2023-03-31T21:14:17.612Z,17.72
2023-03-31T21:16:46.429Z,17.93
2023-03-31T21:19:14.729Z,18.20
2023-03-31T21:21:44.104Z,18.51
2023-03-31T21:24:13.633Z,18.68
2023-03-31T21:26:42.405Z,18.54
2023-03-31T21:29:10.798Z,18.38
2023-03-31T21:31:39.254Z,18.75
2023-03-31T21:34:07.600Z,18.24
2023-03-31T21:36:35.898Z,17.81
2023-03-31T21:39:04.210Z,17.41
2023-03-31T21:41:32.960Z,17.19
2023-03-31T21:44:02.802Z,17.23
2023-03-31T21:46:33.604Z,17.55
2023-03-31T21:49:02.723Z,18.23
2023-03-31T21:51:31.825Z,18.76
2023-03-31T21:54:00.054Z,19.01
2023-03-31T21:56:32.130Z,19.23
2023-03-31T21:59:01.937Z,19.28
2023-03-31T22:01:30.177Z,19.53
2023-03-31T22:03:59.920Z,18.94
2023-03-31T22:06:28.356Z,18.62
2023-03-31T22:08:56.919Z,18.45
2023-03-31T22:11:25.236Z,18.80
2023-03-31T22:13:53.610Z,18.97
2023-03-31T22:16:23.723Z,18.87
2023-03-31T22:18:53.554Z,18.75
2023-03-31T22:21:27.130Z,18.85
2023-03-31T22:23:58.351Z,19.49
2023-03-31T22:26:29.474Z,19.77
2023-03-31T22:28:58.485Z,19.98
2023-03-31T22:31:29.960Z,20.02
2023-03-31T22:33:58.236Z,20.12
2023-03-31T22:36:26.549Z,20.03
2023-03-31T22:38:54.902Z,19.95
2023-03-31T22:41:23.376Z,19.88
2023-03-31T22:43:52.341Z,19.86
2023-03-31T22:46:20.655Z,19.84
2023-03-31T22:48:52.351Z,19.86
2023-03-31T22:51:20.646Z,19.81
2023-03-31T22:53:54.470Z,19.73
2023-03-31T22:56:23.884Z,19.59
2023-03-31T22:58:53.036Z,19.26
2023-03-31T23:01:22.498Z,18.76
2023-03-31T23:03:51.305Z,18.46
2023-03-31T23:06:19.865Z,18.28
2023-03-31T23:08:49.816Z,17.94
2023-03-31T23:11:19.456Z,17.61
2023-03-31T23:13:48.337Z,17.43
2023-03-31T23:16:26.083Z,17.34
2023-03-31T23:18:55.704Z,17.33
2023-03-31T23:21:26.388Z,17.24
2023-03-31T23:23:58.520Z,17.09
2023-03-31T23:26:28.680Z,16.93
2023-03-31T23:28:58.260Z,16.87
2023-03-31T23:31:29.570Z,16.83
2023-03-31T23:34:00.169Z,16.79
2023-03-31T23:36:28.981Z,16.65
2023-03-31T23:38:59.272Z,16.65
2023-03-31T23:41:27.511Z,16.60
2023-03-31T23:43:56.774Z,16.47
2023-03-31T23:46:26.735Z,16.36
2023-03-31T23:48:55.522Z,16.29
2023-03-31T23:51:24.101Z,16.22
2023-03-31T23:53:52.814Z,16.21
2023-03-31T23:56:21.344Z,16.14
2023-03-31T23:58:49.548Z,16.11
